createdAt,value
2017-02-05T00:00:01.355Z,19.97
2017-02-05T00:00:42.001Z,19.97
2017-02-05T00:01:22.713Z,19.93
2017-02-05T00:02:03.398Z,20.05
2017-02-05T00:02:44.035Z,19.9
2017-02-05T00:03:24.750Z,19.9
2017-02-05T00:04:05.502Z,20
2017-02-05T00:04:46.171Z,20.05
2017-02-05T00:05:26.819Z,20.13
2017-02-05T00:06:07.561Z,20.09
2017-02-05T00:06:48.264Z,20.1
2017-02-05T00:07:28.987Z,20.12
2017-02-05T00:08:09.641Z,20.1
2017-02-05T00:08:50.361Z,20.09
2017-02-05T00:09:31.102Z,20.13
2017-02-05T00:10:11.732Z,20.05
2017-02-05T00:10:52.436Z,20.08
2017-02-05T00:11:33.058Z,20.09
2017-02-05T00:12:13.692Z,20.13
2017-02-05T00:12:54.320Z,20.02
2017-02-05T00:13:35.000Z,20.06
2017-02-05T00:14:15.624Z,19.94
2017-02-05T00:14:56.297Z,19.91
2017-02-05T00:15:36.979Z,19.97
2017-02-05T00:16:17.619Z,19.87
2017-02-05T00:16:58.250Z,20.05
2017-02-05T00:17:38.939Z,20.02
2017-02-05T00:18:19.607Z,20.02
2017-02-05T00:19:00.255Z,19.98
2017-02-05T00:19:40.972Z,20.03
2017-02-05T00:20:21.684Z,20.02
2017-02-05T00:21:02.334Z,19.95
2017-02-05T00:21:43.058Z,20.03
2017-02-05T00:22:23.732Z,19.98
2017-02-05T00:23:04.409Z,19.98
2017-02-05T00:23:45.134Z,19.93
2017-02-05T00:24:25.747Z,20.03
2017-02-05T00:25:06.403Z,20
2017-02-05T00:25:47.043Z,19.97
2017-02-05T00:26:27.738Z,20.06
2017-02-05T00:27:08.387Z,19.93
2017-02-05T00:27:49.029Z,19.93
2017-02-05T00:28:29.702Z,19.94
2017-02-05T00:29:10.340Z,19.93
2017-02-05T00:29:50.976Z,19.95
2017-02-05T00:30:31.665Z,20.03
2017-02-05T00:31:12.298Z,20.02
2017-02-05T00:31:52.935Z,20.08
2017-02-05T00:32:33.598Z,20.03
2017-02-05T00:33:14.321Z,20.03
2017-02-05T00:33:54.978Z,20.03
2017-02-05T00:34:35.652Z,20.05
2017-02-05T00:35:16.308Z,19.93
2017-02-05T00:35:56.942Z,20.03
2017-02-05T00:36:37.571Z,20.08
2017-02-05T00:37:18.297Z,20.08
2017-02-05T00:37:58.941Z,20
2017-02-05T00:38:39.589Z,20.03
2017-02-05T00:39:20.215Z,20.09
2017-02-05T00:40:00.945Z,20.03
2017-02-05T00:40:41.592Z,20.1
2017-02-05T00:41:22.254Z,20.02
2017-02-05T00:42:02.898Z,19.88
2017-02-05T00:42:43.564Z,19.97
2017-02-05T00:43:24.199Z,20.02
2017-02-05T00:44:04.900Z,20
2017-02-05T00:44:45.531Z,19.97
2017-02-05T00:45:26.216Z,19.95
2017-02-05T00:46:06.923Z,19.91
2017-02-05T00:46:47.651Z,19.94
2017-02-05T00:47:28.301Z,19.94
2017-02-05T00:48:09.019Z,19.93
2017-02-05T00:48:49.702Z,19.94
2017-02-05T00:49:30.432Z,20
2017-02-05T00:50:11.096Z,19.93
2017-02-05T00:50:51.736Z,19.93
2017-02-05T00:51:32.476Z,19.97
2017-02-05T00:52:13.130Z,19.93
2017-02-05T00:52:53.841Z,20
2017-02-05T00:53:34.500Z,19.98
2017-02-05T00:54:15.174Z,20.03
2017-02-05T00:54:55.807Z,20.03
2017-02-05T00:55:36.518Z,20.02
2017-02-05T00:56:17.157Z,19.95
2017-02-05T00:56:57.791Z,20
2017-02-05T00:57:38.484Z,19.95
2017-02-05T00:58:19.165Z,19.97
2017-02-05T00:58:59.797Z,20.05
2017-02-05T00:59:40.559Z,19.95
2017-02-05T01:00:21.294Z,19.93
2017-02-05T01:01:01.966Z,20
2017-02-05T01:01:42.599Z,20
2017-02-05T01:02:23.247Z,20.03
2017-02-05T01:03:03.938Z,20.03
2017-02-05T01:03:44.593Z,20
2017-02-05T01:04:25.241Z,19.95
2017-02-05T01:05:06.759Z,19.9
2017-02-05T01:05:47.458Z,19.94
2017-02-05T01:06:28.114Z,19.97
2017-02-05T01:07:08.784Z,19.88
2017-02-05T01:07:49.420Z,19.97
2017-02-05T01:08:30.086Z,19.94
2017-02-05T01:09:10.809Z,19.91
2017-02-05T01:09:51.460Z,19.93
2017-02-05T01:10:32.133Z,19.9
2017-02-05T01:11:12.763Z,19.91
2017-02-05T01:11:53.410Z,19.93
2017-02-05T01:12:34.022Z,19.97
2017-02-05T01:13:14.659Z,19.98
2017-02-05T01:13:55.319Z,19.95
2017-02-05T01:14:35.952Z,19.95
2017-02-05T01:15:16.624Z,19.91
2017-02-05T01:15:57.297Z,20.02
2017-02-05T01:16:37.933Z,19.93
2017-02-05T01:17:18.700Z,19.91
2017-02-05T01:17:59.404Z,19.91
2017-02-05T01:18:40.042Z,19.94
2017-02-05T01:19:20.737Z,19.94
2017-02-05T01:20:01.459Z,19.9
2017-02-05T01:20:42.113Z,19.97
2017-02-05T01:21:22.730Z,20.05
2017-02-05T01:22:03.400Z,19.94
2017-02-05T01:22:44.066Z,19.97
2017-02-05T01:23:24.750Z,19.91
2017-02-05T01:24:05.483Z,20.06
2017-02-05T01:24:46.112Z,19.98
2017-02-05T01:25:26.778Z,19.91
2017-02-05T01:26:07.476Z,19.94
2017-02-05T01:26:48.183Z,19.87
2017-02-05T01:27:28.819Z,19.98
2017-02-05T01:28:09.455Z,19.94
2017-02-05T01:28:50.115Z,19.94
2017-02-05T01:29:30.742Z,19.94
2017-02-05T01:30:11.427Z,20.03
2017-02-05T01:30:52.069Z,20.02
2017-02-05T01:31:32.743Z,19.98
2017-02-05T01:32:13.356Z,19.94
2017-02-05T01:32:54.035Z,19.97
2017-02-05T01:33:34.665Z,19.95
2017-02-05T01:34:15.364Z,19.87
2017-02-05T01:34:55.989Z,19.98
2017-02-05T01:35:36.688Z,20.03
2017-02-05T01:36:17.334Z,19.9
2017-02-05T01:36:58.051Z,19.93
2017-02-05T01:37:38.752Z,19.97
2017-02-05T01:38:19.396Z,19.91
2017-02-05T01:39:00.063Z,20.05
2017-02-05T01:39:40.706Z,19.95
2017-02-05T01:40:21.374Z,19.95
2017-02-05T01:41:01.993Z,19.91
2017-02-05T01:41:42.643Z,19.95
2017-02-05T01:42:23.306Z,19.94
2017-02-05T01:43:03.949Z,19.97
2017-02-05T01:43:44.665Z,19.95
2017-02-05T01:44:25.413Z,19.86
2017-02-05T01:45:06.044Z,19.98
2017-02-05T01:45:46.752Z,19.97
2017-02-05T01:46:27.435Z,19.95
2017-02-05T01:47:08.143Z,19.95
2017-02-05T01:47:48.809Z,19.91
2017-02-05T01:48:29.441Z,19.91
2017-02-05T01:49:10.181Z,19.93
2017-02-05T01:49:50.882Z,19.94
2017-02-05T01:50:31.587Z,19.94
2017-02-05T01:51:12.287Z,19.95
2017-02-05T01:51:52.930Z,19.93
2017-02-05T01:52:33.563Z,19.94
2017-02-05T01:53:14.210Z,19.91
2017-02-05T01:53:54.984Z,19.95
2017-02-05T01:54:35.613Z,19.87
2017-02-05T01:55:16.270Z,19.94
2017-02-05T01:55:57.041Z,19.91
2017-02-05T01:56:37.671Z,19.88
2017-02-05T01:57:18.299Z,19.86
2017-02-05T01:57:58.986Z,19.94
2017-02-05T01:58:39.683Z,19.93
2017-02-05T01:59:20.342Z,19.98
2017-02-05T02:00:00.966Z,19.97
2017-02-05T02:00:41.708Z,19.97
2017-02-05T02:01:22.355Z,19.9
2017-02-05T02:02:03.083Z,19.91
2017-02-05T02:02:43.753Z,19.9
2017-02-05T02:03:24.461Z,19.88
2017-02-05T02:04:05.111Z,19.98
2017-02-05T02:04:45.831Z,19.83
2017-02-05T02:05:26.479Z,19.97
2017-02-05T02:06:07.123Z,19.93
2017-02-05T02:06:47.776Z,19.94
2017-02-05T02:07:28.442Z,19.97
2017-02-05T02:08:09.060Z,19.95
2017-02-05T02:08:49.719Z,19.95
2017-02-05T02:09:30.368Z,19.95
2017-02-05T02:10:10.994Z,19.97
2017-02-05T02:10:51.622Z,19.91
2017-02-05T02:11:32.325Z,19.87
2017-02-05T02:12:12.971Z,19.9
2017-02-05T02:12:53.664Z,19.95
2017-02-05T02:13:34.323Z,19.84
2017-02-05T02:14:14.954Z,19.91
2017-02-05T02:14:55.601Z,19.91
2017-02-05T02:15:36.279Z,19.93
2017-02-05T02:16:16.938Z,19.9
2017-02-05T02:16:57.570Z,19.97
2017-02-05T02:17:38.264Z,19.93
2017-02-05T02:18:18.973Z,19.95
2017-02-05T02:18:59.603Z,19.93
2017-02-05T02:19:40.234Z,19.94
2017-02-05T02:20:20.933Z,20
2017-02-05T02:21:01.581Z,19.93
2017-02-05T02:21:42.230Z,19.87
2017-02-05T02:22:22.885Z,19.95
2017-02-05T02:23:03.524Z,19.95
2017-02-05T02:23:44.207Z,19.83
2017-02-05T02:24:24.837Z,19.97
2017-02-05T02:25:05.480Z,19.95
2017-02-05T02:25:46.108Z,19.95
2017-02-05T02:26:26.815Z,19.86
2017-02-05T02:27:07.489Z,19.97
2017-02-05T02:27:48.159Z,19.86
2017-02-05T02:28:28.783Z,19.87
2017-02-05T02:29:09.466Z,19.93
2017-02-05T02:29:50.113Z,19.91
2017-02-05T02:30:30.755Z,19.95
2017-02-05T02:31:11.490Z,19.91
2017-02-05T02:31:52.121Z,19.91
2017-02-05T02:32:32.822Z,19.79
2017-02-05T02:33:13.461Z,19.97
2017-02-05T02:33:54.085Z,19.91
2017-02-05T02:34:34.790Z,19.91
2017-02-05T02:35:16.474Z,19.98
2017-02-05T02:35:57.147Z,19.95
2017-02-05T02:36:37.790Z,19.95
2017-02-05T02:37:18.417Z,19.94
2017-02-05T02:37:59.132Z,19.93
2017-02-05T02:38:39.761Z,19.98
2017-02-05T02:39:20.450Z,19.8
2017-02-05T02:40:01.188Z,19.94
2017-02-05T02:40:41.835Z,19.83
2017-02-05T02:41:22.520Z,19.75
2017-02-05T02:42:03.186Z,19.93
2017-02-05T02:42:43.931Z,19.86
2017-02-05T02:43:24.579Z,19.78
2017-02-05T02:44:05.239Z,19.78
2017-02-05T02:44:45.966Z,19.76
2017-02-05T02:45:26.590Z,19.95
2017-02-05T02:46:07.322Z,19.98
2017-02-05T02:46:48.030Z,19.98
2017-02-05T02:47:28.660Z,19.86
2017-02-05T02:48:09.286Z,19.9
2017-02-05T02:48:50.017Z,19.84
2017-02-05T02:49:30.651Z,19.88
2017-02-05T02:50:11.299Z,19.9
2017-02-05T02:50:51.919Z,19.94
2017-02-05T02:51:32.573Z,19.94
2017-02-05T02:52:13.206Z,19.93
2017-02-05T02:52:53.840Z,19.95
2017-02-05T02:53:34.485Z,19.91
2017-02-05T02:54:15.143Z,19.95
2017-02-05T02:54:55.857Z,19.95
2017-02-05T02:55:36.492Z,19.84
2017-02-05T02:56:17.124Z,19.95
2017-02-05T02:56:57.782Z,19.8
2017-02-05T02:57:38.484Z,19.93
2017-02-05T02:58:19.128Z,19.94
2017-02-05T02:58:59.816Z,19.95
2017-02-05T02:59:40.453Z,19.93
2017-02-05T03:00:21.136Z,19.93
2017-02-05T03:01:01.712Z,19.88
2017-02-05T03:01:42.456Z,19.94
2017-02-05T03:02:23.160Z,19.91
2017-02-05T03:03:03.791Z,19.91
2017-02-05T03:03:44.439Z,19.73
2017-02-05T03:04:25.072Z,19.76
2017-02-05T03:05:05.708Z,19.83
2017-02-05T03:05:46.342Z,19.91
2017-02-05T03:06:26.966Z,19.78
2017-02-05T03:07:07.619Z,19.93
2017-02-05T03:07:48.243Z,19.79
2017-02-05T03:08:28.943Z,19.91
2017-02-05T03:09:09.594Z,19.97
2017-02-05T03:09:50.216Z,19.8
2017-02-05T03:10:30.920Z,19.93
2017-02-05T03:11:11.557Z,19.78
2017-02-05T03:11:52.187Z,19.83
2017-02-05T03:12:32.863Z,19.83
2017-02-05T03:13:13.506Z,19.88
2017-02-05T03:13:54.243Z,19.86
2017-02-05T03:14:34.887Z,19.8
2017-02-05T03:15:15.611Z,19.84
2017-02-05T03:15:56.261Z,19.8
2017-02-05T03:16:36.907Z,19.88
2017-02-05T03:17:17.631Z,19.95
2017-02-05T03:17:58.253Z,19.97
2017-02-05T03:18:38.886Z,19.86
2017-02-05T03:19:19.623Z,19.78
2017-02-05T03:20:00.267Z,19.95
2017-02-05T03:20:40.967Z,19.78
2017-02-05T03:21:21.669Z,19.91
2017-02-05T03:22:02.307Z,19.83
2017-02-05T03:22:42.963Z,19.83
2017-02-05T03:23:23.612Z,19.87
2017-02-05T03:24:04.312Z,19.84
2017-02-05T03:24:44.937Z,19.8
2017-02-05T03:25:25.592Z,19.84
2017-02-05T03:26:06.264Z,19.86
2017-02-05T03:26:46.904Z,19.8
2017-02-05T03:27:27.520Z,19.8
2017-02-05T03:28:08.203Z,19.97
2017-02-05T03:28:48.856Z,19.95
2017-02-05T03:29:29.611Z,19.93
2017-02-05T03:30:10.364Z,19.93
2017-02-05T03:30:51.012Z,19.97
2017-02-05T03:31:31.652Z,19.93
2017-02-05T03:32:12.274Z,19.94
2017-02-05T03:32:52.956Z,19.91
2017-02-05T03:33:33.578Z,19.94
2017-02-05T03:34:14.212Z,19.86
2017-02-05T03:34:54.845Z,19.94
2017-02-05T03:35:35.489Z,19.79
2017-02-05T03:36:16.142Z,19.86
2017-02-05T03:36:56.775Z,19.76
2017-02-05T03:37:37.405Z,19.93
2017-02-05T03:38:18.074Z,19.8
2017-02-05T03:38:58.766Z,19.79
2017-02-05T03:39:39.422Z,19.78
2017-02-05T03:40:20.088Z,19.87
2017-02-05T03:41:00.769Z,19.79
2017-02-05T03:41:41.441Z,19.83
2017-02-05T03:42:22.078Z,19.84
2017-02-05T03:43:02.733Z,19.78
2017-02-05T03:43:43.455Z,19.8
2017-02-05T03:44:24.027Z,19.84
2017-02-05T03:45:04.702Z,19.9
2017-02-05T03:45:45.384Z,19.86
2017-02-05T03:46:26.033Z,19.9
2017-02-05T03:47:06.727Z,19.76
2017-02-05T03:47:47.444Z,19.75
2017-02-05T03:48:28.078Z,19.76
2017-02-05T03:49:08.734Z,19.8
2017-02-05T03:49:49.359Z,19.84
2017-02-05T03:50:30.001Z,19.95
2017-02-05T03:51:10.687Z,19.88
2017-02-05T03:51:51.395Z,19.91
2017-02-05T03:52:32.056Z,19.76
2017-02-05T03:53:12.689Z,19.86
2017-02-05T03:53:53.388Z,19.87
2017-02-05T03:54:34.013Z,19.91
2017-02-05T03:55:14.664Z,19.83
2017-02-05T03:55:56.046Z,19.91
2017-02-05T03:56:36.680Z,19.93
2017-02-05T03:57:17.358Z,19.88
2017-02-05T03:57:57.992Z,19.79
2017-02-05T03:58:38.626Z,19.76
2017-02-05T03:59:19.248Z,19.91
2017-02-05T03:59:59.908Z,19.91
2017-02-05T04:00:40.543Z,19.88
2017-02-05T04:01:21.168Z,19.76
2017-02-05T04:02:01.829Z,19.84
2017-02-05T04:02:42.471Z,19.91
2017-02-05T04:03:23.093Z,19.78
2017-02-05T04:04:03.786Z,19.9
2017-02-05T04:04:44.412Z,19.76
2017-02-05T04:05:25.066Z,19.9
2017-02-05T04:06:05.753Z,19.83
2017-02-05T04:06:46.372Z,19.8
2017-02-05T04:07:27.088Z,19.84
2017-02-05T04:08:07.771Z,19.95
2017-02-05T04:08:48.419Z,19.91
2017-02-05T04:09:29.072Z,19.79
2017-02-05T04:10:09.738Z,19.87
2017-02-05T04:10:50.469Z,19.79
2017-02-05T04:11:31.096Z,19.86
2017-02-05T04:12:11.783Z,19.78
2017-02-05T04:12:52.453Z,19.87
2017-02-05T04:13:33.081Z,19.88
2017-02-05T04:14:13.862Z,19.78
2017-02-05T04:14:54.553Z,19.79
2017-02-05T04:15:35.276Z,19.9
2017-02-05T04:16:15.945Z,19.9
2017-02-05T04:16:56.584Z,19.86
2017-02-05T04:17:37.208Z,19.87
2017-02-05T04:18:17.852Z,19.78
2017-02-05T04:18:58.517Z,19.87
2017-02-05T04:19:39.145Z,19.86
2017-02-05T04:20:19.773Z,19.84
2017-02-05T04:21:00.414Z,19.93
2017-02-05T04:21:41.065Z,19.98
2017-02-05T04:22:21.722Z,19.84
2017-02-05T04:23:02.456Z,19.79
2017-02-05T04:23:43.107Z,19.75
2017-02-05T04:24:23.764Z,19.93
2017-02-05T04:25:04.440Z,19.8
2017-02-05T04:25:45.100Z,19.79
2017-02-05T04:26:25.823Z,19.8
2017-02-05T04:27:06.440Z,19.86
2017-02-05T04:27:47.084Z,19.86
2017-02-05T04:28:27.751Z,19.8
2017-02-05T04:29:08.346Z,19.83
2017-02-05T04:29:49.027Z,19.78
2017-02-05T04:30:29.755Z,19.8
2017-02-05T04:31:10.406Z,19.87
2017-02-05T04:31:51.050Z,19.83
2017-02-05T04:32:31.692Z,19.83
2017-02-05T04:33:12.316Z,19.83
2017-02-05T04:33:52.940Z,19.9
2017-02-05T04:34:33.623Z,19.9
2017-02-05T04:35:14.268Z,19.86
2017-02-05T04:35:54.945Z,19.79
2017-02-05T04:36:35.630Z,19.86
2017-02-05T04:37:16.285Z,19.88
2017-02-05T04:37:56.917Z,19.87
2017-02-05T04:38:38.498Z,19.76
2017-02-05T04:39:19.123Z,19.84
2017-02-05T04:39:59.788Z,19.73
2017-02-05T04:40:40.429Z,19.84
2017-02-05T04:41:21.049Z,19.84
2017-02-05T04:42:01.708Z,19.86
2017-02-05T04:42:42.420Z,19.88
2017-02-05T04:43:23.115Z,19.86
2017-02-05T04:44:03.746Z,19.83
2017-02-05T04:44:44.453Z,19.8
2017-02-05T04:45:25.104Z,19.79
2017-02-05T04:46:05.779Z,19.8
2017-02-05T04:46:46.400Z,19.8
2017-02-05T04:47:27.028Z,19.84
2017-02-05T04:48:07.662Z,19.84
2017-02-05T04:48:48.315Z,19.84
2017-02-05T04:49:28.944Z,19.86
2017-02-05T04:50:09.586Z,19.8
2017-02-05T04:50:50.232Z,19.78
2017-02-05T04:51:30.861Z,19.8
2017-02-05T04:52:11.500Z,19.87
2017-02-05T04:52:52.146Z,19.83
2017-02-05T04:53:32.869Z,19.88
2017-02-05T04:54:13.518Z,19.79
2017-02-05T04:54:54.179Z,19.79
2017-02-05T04:55:34.816Z,19.78
2017-02-05T04:56:15.435Z,19.83
2017-02-05T04:56:56.734Z,19.79
2017-02-05T04:57:37.364Z,19.83
2017-02-05T04:58:17.995Z,19.8
2017-02-05T04:58:58.630Z,19.8
2017-02-05T04:59:39.266Z,19.75
2017-02-05T05:00:19.965Z,19.91
2017-02-05T05:01:00.704Z,19.86
2017-02-05T05:01:41.336Z,19.91
2017-02-05T05:02:21.969Z,19.76
2017-02-05T05:03:02.688Z,19.83
2017-02-05T05:03:43.324Z,19.76
2017-02-05T05:04:23.955Z,19.8
2017-02-05T05:05:04.675Z,19.8
2017-02-05T05:05:45.353Z,19.78
2017-02-05T05:06:25.987Z,19.79
2017-02-05T05:07:06.714Z,19.75
2017-02-05T05:07:47.382Z,19.86
2017-02-05T05:08:28.052Z,19.79
2017-02-05T05:09:08.716Z,19.84
2017-02-05T05:09:49.445Z,19.83
2017-02-05T05:10:30.119Z,19.79
2017-02-05T05:11:10.769Z,19.78
2017-02-05T05:11:51.444Z,19.86
2017-02-05T05:12:32.155Z,19.84
2017-02-05T05:13:12.789Z,19.83
2017-02-05T05:13:53.442Z,19.76
2017-02-05T05:14:34.097Z,19.84
2017-02-05T05:15:14.838Z,19.84
2017-02-05T05:15:55.446Z,19.83
2017-02-05T05:16:36.131Z,19.8
2017-02-05T05:17:16.774Z,19.79
2017-02-05T05:17:57.405Z,19.84
2017-02-05T05:18:38.151Z,19.87
2017-02-05T05:19:19.349Z,19.83
2017-02-05T05:20:00.041Z,19.76
2017-02-05T05:20:40.805Z,19.83
2017-02-05T05:21:21.462Z,19.78
2017-02-05T05:22:02.119Z,19.79
2017-02-05T05:22:42.819Z,19.87
2017-02-05T05:23:23.531Z,19.79
2017-02-05T05:24:04.156Z,19.86
2017-02-05T05:24:44.840Z,19.86
2017-02-05T05:25:25.470Z,19.84
2017-02-05T05:26:06.101Z,19.76
2017-02-05T05:26:46.803Z,19.76
2017-02-05T05:27:27.531Z,19.79
2017-02-05T05:28:08.163Z,19.83
2017-02-05T05:28:48.870Z,19.83
2017-02-05T05:29:29.584Z,19.79
2017-02-05T05:30:10.241Z,19.83
2017-02-05T05:30:50.906Z,19.83
2017-02-05T05:31:31.525Z,19.79
2017-02-05T05:32:12.161Z,19.83
2017-02-05T05:32:52.786Z,19.87
2017-02-05T05:33:33.541Z,19.8
2017-02-05T05:34:14.252Z,19.8
2017-02-05T05:34:54.891Z,19.76
2017-02-05T05:35:35.518Z,19.8
2017-02-05T05:36:16.154Z,19.79
2017-02-05T05:36:56.818Z,19.86
2017-02-05T05:37:37.458Z,19.79
2017-02-05T05:38:18.109Z,19.79
2017-02-05T05:38:58.742Z,19.88
2017-02-05T05:39:39.432Z,19.69
2017-02-05T05:40:20.149Z,19.79
2017-02-05T05:41:00.790Z,19.8
2017-02-05T05:41:41.426Z,19.76
2017-02-05T05:42:22.172Z,19.79
2017-02-05T05:43:02.902Z,19.79
2017-02-05T05:43:43.529Z,19.86
2017-02-05T05:44:24.194Z,19.78
2017-02-05T05:45:04.953Z,19.79
2017-02-05T05:45:45.644Z,19.83
2017-02-05T05:46:26.272Z,19.72
2017-02-05T05:47:06.960Z,19.79
2017-02-05T05:47:47.579Z,19.8
2017-02-05T05:48:28.202Z,19.84
2017-02-05T05:49:08.907Z,19.84
2017-02-05T05:49:49.620Z,19.88
2017-02-05T05:50:30.261Z,19.9
2017-02-05T05:51:10.930Z,19.8
2017-02-05T05:51:51.659Z,19.78
2017-02-05T05:52:32.314Z,19.84
2017-02-05T05:53:12.941Z,19.84
2017-02-05T05:53:53.680Z,19.79
2017-02-05T05:54:34.311Z,19.86
2017-02-05T05:55:14.943Z,19.84
2017-02-05T05:55:55.573Z,19.87
2017-02-05T05:56:36.258Z,19.94
2017-02-05T05:57:16.883Z,19.93
2017-02-05T05:57:57.577Z,19.79
2017-02-05T05:58:38.220Z,19.84
2017-02-05T05:59:18.861Z,19.8
2017-02-05T05:59:59.490Z,19.7
2017-02-05T06:00:40.214Z,19.8
2017-02-05T06:01:20.869Z,19.83
2017-02-05T06:02:01.520Z,19.78
2017-02-05T06:02:42.224Z,19.8
2017-02-05T06:03:22.902Z,19.83
2017-02-05T06:04:03.560Z,19.8
2017-02-05T06:04:44.203Z,19.86
2017-02-05T06:05:24.869Z,19.79
2017-02-05T06:06:05.498Z,19.88
2017-02-05T06:06:47.203Z,19.79
2017-02-05T06:07:27.852Z,19.78
2017-02-05T06:08:08.481Z,19.84
2017-02-05T06:08:49.124Z,19.8
2017-02-05T06:09:29.771Z,19.72
2017-02-05T06:10:10.396Z,19.76
2017-02-05T06:10:51.020Z,19.76
2017-02-05T06:11:31.708Z,19.8
2017-02-05T06:12:12.353Z,19.78
2017-02-05T06:12:52.987Z,19.78
2017-02-05T06:13:33.661Z,19.76
2017-02-05T06:14:14.308Z,19.79
2017-02-05T06:14:55.024Z,19.84
2017-02-05T06:15:35.686Z,19.9
2017-02-05T06:16:16.420Z,19.8
2017-02-05T06:16:57.085Z,19.84
2017-02-05T06:17:37.735Z,19.79
2017-02-05T06:18:18.474Z,19.84
2017-02-05T06:18:59.097Z,19.84
2017-02-05T06:19:39.731Z,19.86
2017-02-05T06:20:20.394Z,19.88
2017-02-05T06:21:01.035Z,19.83
2017-02-05T06:21:41.780Z,19.79
2017-02-05T06:22:22.408Z,19.79
2017-02-05T06:23:03.053Z,19.76
2017-02-05T06:23:43.699Z,19.8
2017-02-05T06:24:24.361Z,19.79
2017-02-05T06:25:05.019Z,19.83
2017-02-05T06:25:45.640Z,19.84
2017-02-05T06:26:26.273Z,19.84
2017-02-05T06:27:06.974Z,19.84
2017-02-05T06:27:47.575Z,19.79
2017-02-05T06:28:28.197Z,19.9
2017-02-05T06:29:08.824Z,19.88
2017-02-05T06:29:49.471Z,19.79
2017-02-05T06:30:30.179Z,19.86
2017-02-05T06:31:10.834Z,19.72
2017-02-05T06:31:51.463Z,19.88
2017-02-05T06:32:32.095Z,19.78
2017-02-05T06:33:12.748Z,19.79
2017-02-05T06:33:53.405Z,19.76
2017-02-05T06:34:34.070Z,19.79
2017-02-05T06:35:14.785Z,19.8
2017-02-05T06:35:55.416Z,19.83
2017-02-05T06:36:36.084Z,19.86
2017-02-05T06:37:16.830Z,19.83
2017-02-05T06:37:57.579Z,19.83
2017-02-05T06:38:38.240Z,19.76
2017-02-05T06:39:18.864Z,19.88
2017-02-05T06:39:59.587Z,19.84
2017-02-05T06:40:40.216Z,19.79
2017-02-05T06:41:20.861Z,19.79
2017-02-05T06:42:03.263Z,19.8
2017-02-05T06:42:43.900Z,19.75
2017-02-05T06:43:24.617Z,19.8
2017-02-05T06:44:05.264Z,19.69
2017-02-05T06:44:45.931Z,19.76
2017-02-05T06:45:27.601Z,19.7
2017-02-05T06:46:08.247Z,19.78
2017-02-05T06:46:48.873Z,19.69
2017-02-05T06:47:29.563Z,19.7
2017-02-05T06:48:10.301Z,19.73
2017-02-05T06:48:50.942Z,19.8
2017-02-05T06:49:31.605Z,19.76
2017-02-05T06:50:12.365Z,19.83
2017-02-05T06:50:53.005Z,19.8
2017-02-05T06:51:33.642Z,19.8
2017-02-05T06:52:14.294Z,19.78
2017-02-05T06:52:54.922Z,19.83
2017-02-05T06:53:35.547Z,19.8
2017-02-05T06:54:16.284Z,19.83
2017-02-05T06:54:57.089Z,19.79
2017-02-05T06:55:37.744Z,19.78
2017-02-05T06:56:18.370Z,19.79
2017-02-05T06:56:59.096Z,19.7
2017-02-05T06:57:39.804Z,19.76
2017-02-05T06:58:20.451Z,19.79
2017-02-05T06:59:01.680Z,19.8
2017-02-05T06:59:42.259Z,19.76
2017-02-05T07:00:22.923Z,19.72
2017-02-05T07:01:03.705Z,19.78
2017-02-05T07:01:44.362Z,19.78
2017-02-05T07:02:24.992Z,19.8
2017-02-05T07:03:05.660Z,19.72
2017-02-05T07:03:46.315Z,19.75
2017-02-05T07:04:27.041Z,19.79
2017-02-05T07:05:07.697Z,19.69
2017-02-05T07:05:48.389Z,19.7
2017-02-05T07:06:29.047Z,19.69
2017-02-05T07:07:09.712Z,19.76
2017-02-05T07:07:50.433Z,19.75
2017-02-05T07:08:31.068Z,19.78
2017-02-05T07:09:11.770Z,19.79
2017-02-05T07:09:52.426Z,19.76
2017-02-05T07:10:33.054Z,19.8
2017-02-05T07:11:13.775Z,19.76
2017-02-05T07:11:54.400Z,19.78
2017-02-05T07:12:35.034Z,19.75
2017-02-05T07:13:15.711Z,19.87
2017-02-05T07:13:56.331Z,19.72
2017-02-05T07:14:36.977Z,19.88
2017-02-05T07:15:17.676Z,19.84
2017-02-05T07:15:58.337Z,19.79
2017-02-05T07:16:39.025Z,19.73
2017-02-05T07:17:19.688Z,19.76
2017-02-05T07:18:00.308Z,19.75
2017-02-05T07:18:41.017Z,19.72
2017-02-05T07:19:21.662Z,19.76
2017-02-05T07:20:02.295Z,19.78
2017-02-05T07:20:43.010Z,19.73
2017-02-05T07:21:23.643Z,19.73
2017-02-05T07:22:04.303Z,19.79
2017-02-05T07:22:44.997Z,19.76
2017-02-05T07:23:25.651Z,19.79
2017-02-05T07:24:06.334Z,19.69
2017-02-05T07:24:46.952Z,19.78
2017-02-05T07:25:27.635Z,19.8
2017-02-05T07:26:08.201Z,19.78
2017-02-05T07:26:48.908Z,19.73
2017-02-05T07:27:29.607Z,19.72
2017-02-05T07:28:10.244Z,19.78
2017-02-05T07:28:50.900Z,19.8
2017-02-05T07:29:31.528Z,19.79
2017-02-05T07:30:12.161Z,19.76
2017-02-05T07:30:52.798Z,19.72
2017-02-05T07:31:33.430Z,19.73
2017-02-05T07:32:14.078Z,19.78
2017-02-05T07:32:54.796Z,19.78
2017-02-05T07:33:35.469Z,19.69
2017-02-05T07:34:16.090Z,19.78
2017-02-05T07:34:56.719Z,19.76
2017-02-05T07:35:37.348Z,19.76
2017-02-05T07:36:17.981Z,19.75
2017-02-05T07:36:58.604Z,19.76
2017-02-05T07:37:39.331Z,19.79
2017-02-05T07:38:19.954Z,19.76
2017-02-05T07:39:00.634Z,19.79
2017-02-05T07:39:41.343Z,19.78
2017-02-05T07:40:22.029Z,19.75
2017-02-05T07:41:02.617Z,19.75
2017-02-05T07:41:43.319Z,19.79
2017-02-05T07:42:23.963Z,19.75
2017-02-05T07:43:04.587Z,19.76
2017-02-05T07:43:45.238Z,19.87
2017-02-05T07:44:25.867Z,19.83
2017-02-05T07:45:07.282Z,19.72
2017-02-05T07:45:47.966Z,19.72
2017-02-05T07:46:28.589Z,19.75
2017-02-05T07:47:09.214Z,19.78
2017-02-05T07:47:49.860Z,19.76
2017-02-05T07:48:30.527Z,19.84
2017-02-05T07:49:11.170Z,19.72
2017-02-05T07:49:51.877Z,19.78
2017-02-05T07:50:32.489Z,19.79
2017-02-05T07:51:13.222Z,19.76
2017-02-05T07:51:53.863Z,19.79
2017-02-05T07:52:34.515Z,19.79
2017-02-05T07:53:15.216Z,19.76
2017-02-05T07:53:55.846Z,19.8
2017-02-05T07:54:36.468Z,19.76
2017-02-05T07:55:17.102Z,19.79
2017-02-05T07:55:57.733Z,19.8
2017-02-05T07:56:38.435Z,19.75
2017-02-05T07:57:19.090Z,19.76
2017-02-05T07:57:59.732Z,19.8
2017-02-05T07:58:40.445Z,19.73
2017-02-05T07:59:21.072Z,19.79
2017-02-05T08:00:01.723Z,19.78
2017-02-05T08:00:42.374Z,19.76
2017-02-05T08:01:23.000Z,19.72
2017-02-05T08:02:03.633Z,19.75
2017-02-05T08:02:44.313Z,19.78
2017-02-05T08:03:24.942Z,19.78
2017-02-05T08:04:05.588Z,19.78
2017-02-05T08:04:46.912Z,19.75
2017-02-05T08:05:27.620Z,19.83
2017-02-05T08:06:08.330Z,19.72
2017-02-05T08:06:49.027Z,19.78
2017-02-05T08:07:29.671Z,19.76
2017-02-05T08:08:10.308Z,19.72
2017-02-05T08:08:50.969Z,19.78
2017-02-05T08:09:31.625Z,19.8
2017-02-05T08:10:12.382Z,19.79
2017-02-05T08:10:53.043Z,19.8
2017-02-05T08:11:33.688Z,19.83
2017-02-05T08:12:14.362Z,19.79
2017-02-05T08:12:55.012Z,19.76
2017-02-05T08:13:35.778Z,19.75
2017-02-05T08:14:16.338Z,19.78
2017-02-05T08:14:57.025Z,19.84
2017-02-05T08:15:37.754Z,19.76
2017-02-05T08:16:18.380Z,19.79
2017-02-05T08:16:59.044Z,19.76
2017-02-05T08:17:39.761Z,19.79
2017-02-05T08:18:20.388Z,19.75
2017-02-05T08:19:01.050Z,19.75
2017-02-05T08:19:41.722Z,19.7
2017-02-05T08:20:22.369Z,19.76
2017-02-05T08:21:03.025Z,19.78
2017-02-05T08:21:43.761Z,19.75
2017-02-05T08:22:24.472Z,19.73
2017-02-05T08:23:05.097Z,19.76
2017-02-05T08:23:45.777Z,19.69
2017-02-05T08:24:26.475Z,19.73
2017-02-05T08:25:07.106Z,19.73
2017-02-05T08:25:47.770Z,19.7
2017-02-05T08:26:28.435Z,19.72
2017-02-05T08:27:09.091Z,19.73
2017-02-05T08:27:49.738Z,19.73
2017-02-05T08:28:30.374Z,19.73
2017-02-05T08:29:11.000Z,19.75
2017-02-05T08:29:51.755Z,19.7
2017-02-05T08:30:32.450Z,19.72
2017-02-05T08:31:13.076Z,19.76
2017-02-05T08:31:53.706Z,19.69
2017-02-05T08:32:34.417Z,19.75
2017-02-05T08:33:15.057Z,19.68
2017-02-05T08:33:55.681Z,19.75
2017-02-05T08:34:36.352Z,19.75
2017-02-05T08:35:17.074Z,19.72
2017-02-05T08:35:57.710Z,19.75
2017-02-05T08:36:38.441Z,19.76
2017-02-05T08:37:19.121Z,19.73
2017-02-05T08:37:59.803Z,19.78
2017-02-05T08:38:40.470Z,19.79
2017-02-05T08:39:21.154Z,19.73
2017-02-05T08:40:01.861Z,19.72
2017-02-05T08:40:42.490Z,19.78
2017-02-05T08:41:23.260Z,19.75
2017-02-05T08:42:03.967Z,19.76
2017-02-05T08:42:44.598Z,19.72
2017-02-05T08:43:25.224Z,19.7
2017-02-05T08:44:05.966Z,19.72
2017-02-05T08:44:46.686Z,19.66
2017-02-05T08:45:27.321Z,19.65
2017-02-05T08:46:08.072Z,19.7